createdAt,value
2019-06-27T00:00:49.251Z,101612.54
2019-06-27T00:03:13.747Z,101620.81
2019-06-27T00:05:38.301Z,101612.52
2019-06-27T00:08:02.951Z,101622.55
2019-06-27T00:10:27.411Z,101617.52
2019-06-27T00:12:51.905Z,101625.80
2019-06-27T00:15:16.611Z,101619.02
2019-06-27T00:17:41.071Z,101620.84
2019-06-27T00:20:06.598Z,101615.64
2019-06-27T00:22:31.077Z,101615.33
2019-06-27T00:24:55.577Z,101621.28
2019-06-27T00:27:20.042Z,101622.23
2019-06-27T00:29:44.623Z,101617.39
2019-06-27T00:32:09.163Z,101624.12
2019-06-27T00:34:33.662Z,101620.05
2019-06-27T00:36:58.145Z,101622.39
2019-06-27T00:39:22.641Z,101623.42
2019-06-27T00:41:47.102Z,101625.98
2019-06-27T00:44:11.599Z,101618.77
2019-06-27T00:46:36.062Z,101624.28
2019-06-27T00:49:00.552Z,101627.56
2019-06-27T00:51:25.022Z,101616.82
2019-06-27T00:53:49.591Z,101628.81
2019-06-27T00:56:14.052Z,101625.36
2019-06-27T00:58:38.522Z,101628.50
2019-06-27T01:01:03.155Z,101630.14
2019-06-27T01:03:27.683Z,101628.47
2019-06-27T01:05:52.164Z,101633.97
2019-06-27T01:08:16.621Z,101628.47
2019-06-27T01:10:41.176Z,101641.28
2019-06-27T01:13:05.704Z,101636.95
2019-06-27T01:15:30.355Z,101646.03
2019-06-27T01:17:54.946Z,101643.79
2019-06-27T01:20:20.075Z,101648.09
2019-06-27T01:22:44.671Z,101644.70
2019-06-27T01:25:09.275Z,101650.92
2019-06-27T01:27:33.682Z,101639.86
2019-06-27T01:29:58.165Z,101648.88
2019-06-27T01:32:22.623Z,101653.79
2019-06-27T01:34:47.133Z,101650.72
2019-06-27T01:37:11.605Z,101658.05
2019-06-27T01:39:36.076Z,101656.13
2019-06-27T01:42:00.636Z,101666.36
2019-06-27T01:44:38.862Z,101660.30
2019-06-27T01:47:03.925Z,101656.55
2019-06-27T01:49:28.396Z,101667.14
2019-06-27T01:51:52.889Z,101657.91
2019-06-27T01:54:17.351Z,101673.73
2019-06-27T01:56:41.833Z,101667.61
2019-06-27T01:59:06.287Z,101672.11
2019-06-27T02:01:30.840Z,101671.70
2019-06-27T02:03:55.299Z,101670.66
2019-06-27T02:06:19.855Z,101671.97
2019-06-27T02:08:44.324Z,101670.54
2019-06-27T02:11:09.063Z,101671.39
2019-06-27T02:13:33.517Z,101671.13
2019-06-27T02:15:58.047Z,101666.58
2019-06-27T02:18:22.814Z,101666.17
2019-06-27T02:20:47.398Z,101665.30
2019-06-27T02:23:11.984Z,101663.61
2019-06-27T02:25:36.591Z,101666.31
2019-06-27T02:28:04.118Z,101666.80
2019-06-27T02:30:30.380Z,101664.34
2019-06-27T02:32:55.282Z,101674.09
2019-06-27T02:35:19.817Z,101617.18
2019-06-27T02:37:44.284Z,101671.16
2019-06-27T02:40:08.994Z,101664.66
2019-06-27T02:42:33.551Z,101662.97
2019-06-27T02:44:58.217Z,101676.89
2019-06-27T02:47:22.701Z,101671.86
2019-06-27T02:49:50.322Z,101673.23
2019-06-27T02:52:13.641Z,101675.05
2019-06-27T02:54:38.251Z,101673.20
2019-06-27T02:57:02.841Z,101679.38
2019-06-27T02:59:27.389Z,101686.17
2019-06-27T03:01:51.986Z,101679.77
2019-06-27T03:04:16.485Z,101674.36
2019-06-27T03:06:40.966Z,101679.92
2019-06-27T03:09:06.650Z,101679.88
2019-06-27T03:11:31.186Z,101686.75
2019-06-27T03:13:55.687Z,101693.28
2019-06-27T03:16:20.341Z,101686.15
2019-06-27T03:18:44.914Z,101687.87
2019-06-27T03:21:09.443Z,101688.14
2019-06-27T03:23:34.120Z,101687.73
2019-06-27T03:25:58.710Z,101690.69
2019-06-27T03:28:23.211Z,101692.73
2019-06-27T03:30:47.754Z,101698.89
2019-06-27T03:33:12.236Z,101694.62
2019-06-27T03:35:37.130Z,101697.45
2019-06-27T03:38:01.628Z,101691.88
2019-06-27T03:40:26.244Z,101695.38
2019-06-27T03:42:50.734Z,101701.89
2019-06-27T03:45:16.325Z,101695.61
2019-06-27T03:47:41.186Z,101704.91
2019-06-27T03:50:07.338Z,101706.30
2019-06-27T03:52:31.821Z,101705.81
2019-06-27T03:54:56.352Z,101702.05
2019-06-27T03:57:20.809Z,101705.36
2019-06-27T03:59:45.366Z,101704.11
2019-06-27T04:02:09.839Z,101709.90
2019-06-27T04:04:34.331Z,101699.64
2019-06-27T04:06:58.805Z,101706.83
2019-06-27T04:09:23.273Z,101703.20
2019-06-27T04:11:47.810Z,101709.37
2019-06-27T04:14:12.288Z,101711.97
2019-06-27T04:16:39.493Z,101711.09
2019-06-27T04:19:04.030Z,101713.77
2019-06-27T04:21:28.486Z,101707.54
2019-06-27T04:23:52.987Z,101711.66
2019-06-27T04:26:17.728Z,101713.98
2019-06-27T04:28:42.221Z,101709.25
2019-06-27T04:31:06.681Z,101707.47
2019-06-27T04:33:31.169Z,101720.85
2019-06-27T04:35:55.624Z,101722.00
2019-06-27T04:38:20.180Z,101711.89
2019-06-27T04:40:44.661Z,101708.61
2019-06-27T04:43:09.219Z,101707.16
2019-06-27T04:45:33.762Z,101713.66
2019-06-27T04:47:58.313Z,101714.33
2019-06-27T04:50:22.810Z,101728.27
2019-06-27T04:52:47.409Z,101729.19
2019-06-27T04:55:11.969Z,101725.72
2019-06-27T04:57:36.430Z,101723.71
2019-06-27T05:00:00.953Z,101731.75
2019-06-27T05:02:25.402Z,101730.45
2019-06-27T05:04:49.983Z,101732.53
2019-06-27T05:07:14.447Z,101738.90
2019-06-27T05:09:38.953Z,101742.87
2019-06-27T05:12:03.492Z,101741.56
2019-06-27T05:14:28.006Z,101743.81
2019-06-27T05:16:52.461Z,101734.98
2019-06-27T05:19:17.024Z,101745.70
2019-06-27T05:21:41.488Z,101745.42
2019-06-27T05:24:05.972Z,101745.13
2019-06-27T05:26:30.481Z,101745.92
2019-06-27T05:28:54.934Z,101747.47
2019-06-27T05:31:19.615Z,101750.61
2019-06-27T05:33:44.116Z,101743.66
2019-06-27T05:36:08.646Z,101745.50
2019-06-27T05:38:33.177Z,101739.55
2019-06-27T05:40:57.740Z,101748.39
2019-06-27T05:43:22.199Z,101754.32
2019-06-27T05:45:46.767Z,101750.70
2019-06-27T05:48:11.350Z,101752.52
2019-06-27T05:50:35.898Z,101747.12
2019-06-27T05:53:00.385Z,101753.92
2019-06-27T05:55:24.861Z,101750.82
2019-06-27T05:57:49.317Z,101751.48
2019-06-27T06:00:27.676Z,101742.95
2019-06-27T06:02:40.288Z,101752.89
2019-06-27T06:05:06.213Z,101751.39
2019-06-27T06:07:30.686Z,101758.28
2019-06-27T06:09:55.239Z,101750.27
2019-06-27T06:12:19.917Z,101759.09
2019-06-27T06:14:44.497Z,101747.89
2019-06-27T06:17:09.021Z,101752.17
2019-06-27T06:19:33.501Z,101752.27
2019-06-27T06:21:58.270Z,101748.17
2019-06-27T06:24:22.738Z,101748.53
2019-06-27T06:26:47.239Z,101740.30
2019-06-27T06:29:11.785Z,101739.45
2019-06-27T06:31:36.299Z,101750.95
2019-06-27T06:34:00.810Z,101745.84
2019-06-27T06:36:25.373Z,101743.10
2019-06-27T06:38:49.920Z,101749.47
2019-06-27T06:41:14.603Z,101747.47
2019-06-27T06:43:39.433Z,101751.89
2019-06-27T06:46:04.624Z,101758.95
2019-06-27T06:48:29.186Z,101751.52
2019-06-27T06:50:54.172Z,101764.95
2019-06-27T06:53:18.629Z,101766.58
2019-06-27T06:55:43.112Z,101763.89
2019-06-27T06:58:07.722Z,101760.03
2019-06-27T07:00:32.400Z,101758.16
2019-06-27T07:02:56.943Z,101759.44
2019-06-27T07:05:21.515Z,101754.73
2019-06-27T07:07:45.976Z,101758.58
2019-06-27T07:10:11.372Z,101762.41
2019-06-27T07:12:35.947Z,101766.65
2019-06-27T07:15:00.402Z,101762.18
2019-06-27T07:17:24.910Z,101753.64
2019-06-27T07:19:49.382Z,101765.45
2019-06-27T07:22:13.853Z,101766.94
2019-06-27T07:24:38.320Z,101759.14
2019-06-27T07:27:02.804Z,101760.39
2019-06-27T07:29:27.275Z,101757.64
2019-06-27T07:31:51.770Z,101755.08
2019-06-27T07:34:16.225Z,101771.54
2019-06-27T07:36:40.755Z,101755.77
2019-06-27T07:39:05.902Z,101754.78
2019-06-27T07:41:30.464Z,101754.73
2019-06-27T07:43:54.912Z,101765.77
2019-06-27T07:46:24.929Z,101762.59
2019-06-27T07:48:45.702Z,101754.55
2019-06-27T07:51:10.195Z,101760.80
2019-06-27T07:53:34.659Z,101756.41
2019-06-27T07:55:59.119Z,101758.47
2019-06-27T07:58:23.658Z,101755.19
2019-06-27T08:00:48.203Z,101756.83
2019-06-27T08:03:12.667Z,101761.40
2019-06-27T08:05:37.218Z,101761.16
2019-06-27T08:08:01.789Z,101761.86
2019-06-27T08:10:26.250Z,101758.08
2019-06-27T08:12:50.752Z,101760.28
2019-06-27T08:15:15.867Z,101762.63
2019-06-27T08:17:40.353Z,101749.72
2019-06-27T08:20:07.398Z,101751.45
2019-06-27T08:22:32.043Z,101753.51
2019-06-27T08:24:56.517Z,101743.83
2019-06-27T08:27:21.002Z,101741.44
2019-06-27T08:29:45.466Z,101747.83
2019-06-27T08:32:09.927Z,101743.48
2019-06-27T08:34:34.491Z,101758.31
2019-06-27T08:36:58.954Z,101747.70
2019-06-27T08:39:23.449Z,101747.39
2019-06-27T08:41:47.990Z,101734.48
2019-06-27T08:44:12.476Z,101741.20
2019-06-27T08:46:37.014Z,101734.57
2019-06-27T08:49:01.515Z,101743.61
2019-06-27T08:51:26.046Z,101735.91
2019-06-27T08:53:50.607Z,101743.03
2019-06-27T08:56:15.067Z,101729.52
2019-06-27T08:58:39.699Z,101721.77
2019-06-27T09:01:04.175Z,101730.58
2019-06-27T09:03:28.648Z,101739.03
2019-06-27T09:05:53.248Z,101725.83
2019-06-27T09:08:17.826Z,101731.02
2019-06-27T09:10:42.362Z,101732.14
2019-06-27T09:13:06.852Z,101733.03
2019-06-27T09:15:31.381Z,101732.77
2019-06-27T09:17:55.846Z,101733.94
2019-06-27T09:20:20.882Z,101726.65
2019-06-27T09:22:45.342Z,101733.80
2019-06-27T09:25:09.996Z,101733.24
2019-06-27T09:27:34.497Z,101739.61
2019-06-27T09:29:58.992Z,101724.23
2019-06-27T09:32:26.136Z,101727.44
2019-06-27T09:34:49.851Z,101721.94
2019-06-27T09:37:14.341Z,101723.62
2019-06-27T09:39:38.821Z,101721.45
2019-06-27T09:42:03.609Z,101718.66
2019-06-27T09:44:28.245Z,101722.41
2019-06-27T09:46:52.717Z,101721.59
2019-06-27T09:49:17.289Z,101714.86
2019-06-27T09:51:41.843Z,101719.90
2019-06-27T09:54:06.395Z,101728.92
2019-06-27T09:56:30.858Z,101718.94
2019-06-27T09:58:55.362Z,101715.53
2019-06-27T10:01:19.962Z,101720.88
2019-06-27T10:03:44.453Z,101713.84
2019-06-27T10:06:09.223Z,101714.56
2019-06-27T10:08:33.661Z,101719.38
2019-06-27T10:10:58.414Z,101721.48
2019-06-27T10:13:22.894Z,101722.41
2019-06-27T10:15:47.359Z,101714.83
2019-06-27T10:18:11.832Z,101724.02
2019-06-27T10:20:36.365Z,101731.48
2019-06-27T10:23:00.975Z,101730.39
2019-06-27T10:25:25.608Z,101720.30
2019-06-27T10:27:50.075Z,101721.59
2019-06-27T10:30:15.745Z,101721.84
2019-06-27T10:32:54.393Z,101721.87
2019-06-27T10:35:07.648Z,101721.20
2019-06-27T10:37:32.202Z,101734.42
2019-06-27T10:39:56.724Z,101727.38
2019-06-27T10:42:21.218Z,101738.17
2019-06-27T10:44:45.954Z,101734.27
2019-06-27T10:47:10.437Z,101733.01
2019-06-27T10:49:35.129Z,101728.31
2019-06-27T10:51:59.619Z,101724.23
2019-06-27T10:54:24.314Z,101731.81
2019-06-27T10:56:48.788Z,101729.69
2019-06-27T10:59:13.261Z,101734.59
2019-06-27T11:01:37.753Z,101728.48
2019-06-27T11:04:02.258Z,101727.38
2019-06-27T11:06:26.755Z,101717.30
2019-06-27T11:08:51.207Z,101721.13
2019-06-27T11:11:15.706Z,101715.53
2019-06-27T11:13:40.153Z,101726.86
2019-06-27T11:16:04.866Z,101714.83
2019-06-27T11:18:29.328Z,101726.23
2019-06-27T11:20:53.957Z,101721.78
2019-06-27T11:23:18.447Z,101721.97
2019-06-27T11:25:43.041Z,101705.58
2019-06-27T11:28:10.090Z,101699.80
2019-06-27T11:30:34.000Z,101713.29
2019-06-27T11:32:58.484Z,101702.86
2019-06-27T11:35:22.948Z,101707.49
2019-06-27T11:37:47.432Z,101703.12
2019-06-27T11:40:12.837Z,101696.94
2019-06-27T11:42:37.346Z,101696.74
2019-06-27T11:45:01.902Z,101698.22
2019-06-27T11:47:26.396Z,101690.08
2019-06-27T11:49:51.043Z,101699.01
2019-06-27T11:52:16.110Z,101697.38
2019-06-27T11:54:40.673Z,101686.42
2019-06-27T11:57:05.281Z,101687.06
2019-06-27T11:59:30.028Z,101691.66
2019-06-27T12:01:54.486Z,101687.48
2019-06-27T12:04:18.975Z,101681.78
2019-06-27T12:06:43.521Z,101675.77
2019-06-27T12:09:08.102Z,101683.84
2019-06-27T12:11:32.628Z,101671.64
2019-06-27T12:13:57.123Z,101666.09
2019-06-27T12:16:21.587Z,101672.86
2019-06-27T12:18:46.172Z,101682.09
2019-06-27T12:21:10.777Z,101682.23
2019-06-27T12:23:35.356Z,101681.01
2019-06-27T12:25:59.955Z,101678.39
2019-06-27T12:28:24.961Z,101678.39
2019-06-27T12:30:49.428Z,101693.44
2019-06-27T12:33:14.095Z,101678.63
2019-06-27T12:35:38.559Z,101677.06
2019-06-27T12:38:03.299Z,101679.18
2019-06-27T12:40:27.890Z,101685.18
2019-06-27T12:42:52.362Z,101691.16
2019-06-27T12:45:17.266Z,101681.98
2019-06-27T12:47:41.746Z,101681.98
2019-06-27T12:50:08.328Z,101679.53
2019-06-27T12:52:32.780Z,101673.92
2019-06-27T12:54:57.356Z,101677.06
2019-06-27T12:57:21.818Z,101671.36
2019-06-27T12:59:46.682Z,101671.36
2019-06-27T13:02:11.722Z,101664.21
2019-06-27T13:04:36.762Z,101664.21
2019-06-27T13:07:01.232Z,101662.77
2019-06-27T13:09:25.847Z,101656.98
2019-06-27T13:11:50.860Z,101669.97
2019-06-27T13:14:15.409Z,101658.84
2019-06-27T13:16:39.887Z,101665.19
2019-06-27T13:19:04.444Z,101651.66
2019-06-27T13:21:28.937Z,101646.51
2019-06-27T13:23:53.568Z,101646.51
2019-06-27T13:26:18.062Z,101656.45
2019-06-27T13:28:42.532Z,101651.91
2019-06-27T13:31:07.152Z,101657.56
2019-06-27T13:33:31.741Z,101643.38
2019-06-27T13:35:56.309Z,101652.85
2019-06-27T13:38:20.770Z,101654.09
2019-06-27T13:40:45.284Z,101668.96
2019-06-27T13:43:09.831Z,101653.08
2019-06-27T13:45:34.344Z,101647.50
2019-06-27T13:47:58.823Z,101652.86
2019-06-27T13:50:23.371Z,101648.14
2019-06-27T13:52:47.838Z,101650.20
2019-06-27T13:55:12.761Z,101642.10
2019-06-27T13:57:37.380Z,101642.10
2019-06-27T14:00:01.849Z,101640.15
2019-06-27T14:02:26.365Z,101637.62
2019-06-27T14:04:56.918Z,101637.62
2019-06-27T14:07:17.004Z,101626.69
2019-06-27T14:09:52.354Z,101625.47
2019-06-27T14:12:07.644Z,101623.47
2019-06-27T14:14:32.112Z,101632.53
2019-06-27T14:16:56.593Z,101634.58
2019-06-27T14:19:21.051Z,101631.27
2019-06-27T14:21:45.793Z,101629.11
2019-06-27T14:24:10.340Z,101629.11
2019-06-27T14:26:34.908Z,101630.39
2019-06-27T14:28:59.363Z,101624.47
2019-06-27T14:31:23.854Z,101621.58
2019-06-27T14:33:48.356Z,101628.26
2019-06-27T14:36:12.840Z,101625.23
2019-06-27T14:38:37.324Z,101618.34
2019-06-27T14:41:01.911Z,101620.23
2019-06-27T14:43:26.369Z,101625.11
2019-06-27T14:45:50.835Z,101607.97
2019-06-27T14:48:15.374Z,101625.87
2019-06-27T14:50:39.820Z,101624.69
2019-06-27T14:53:04.452Z,101627.58
2019-06-27T14:55:28.900Z,101632.38
2019-06-27T14:57:53.781Z,101623.87
2019-06-27T15:00:19.150Z,101626.33
2019-06-27T15:02:43.634Z,101631.15
2019-06-27T15:05:08.751Z,101626.91
2019-06-27T15:07:33.247Z,101626.30
2019-06-27T15:09:57.692Z,101616.95
2019-06-27T15:12:22.257Z,101618.94
2019-06-27T15:14:50.391Z,101618.68
2019-06-27T15:17:12.902Z,101618.68
2019-06-27T15:19:37.386Z,101616.12
2019-06-27T15:22:01.903Z,101618.80
2019-06-27T15:24:26.378Z,101609.14
2019-06-27T15:26:50.904Z,101615.91
2019-06-27T15:29:15.420Z,101622.81
2019-06-27T15:31:39.922Z,101622.81
2019-06-27T15:34:04.612Z,101618.68
2019-06-27T15:36:29.103Z,101626.58
2019-06-27T15:38:53.610Z,101619.91
2019-06-27T15:41:18.076Z,101622.28
2019-06-27T15:43:42.582Z,101635.66
2019-06-27T15:46:07.033Z,101621.38
2019-06-27T15:48:31.559Z,101627.94
2019-06-27T15:50:56.005Z,101627.94
2019-06-27T15:53:20.503Z,101631.56
2019-06-27T15:55:44.961Z,101639.20
2019-06-27T15:58:09.464Z,101636.02
2019-06-27T16:00:34.060Z,101631.89
2019-06-27T16:02:58.633Z,101622.36
2019-06-27T16:05:23.290Z,101634.03
2019-06-27T16:07:47.728Z,101634.59
2019-06-27T16:10:13.462Z,101634.59
2019-06-27T16:12:38.859Z,101624.33
2019-06-27T16:15:05.084Z,101615.12
2019-06-27T16:17:29.629Z,101615.12
2019-06-27T16:19:54.145Z,101619.23
2019-06-27T16:22:18.657Z,101629.02
2019-06-27T16:24:43.100Z,101629.11
2019-06-27T16:27:07.561Z,101616.28
2019-06-27T16:29:32.064Z,101620.22
2019-06-27T16:31:56.604Z,101607.20
2019-06-27T16:34:21.117Z,101609.39
2019-06-27T16:36:45.584Z,101608.69
2019-06-27T16:39:10.086Z,101604.14
2019-06-27T16:41:34.882Z,101609.80
2019-06-27T16:43:59.409Z,101608.14
2019-06-27T16:46:23.988Z,101602.31
2019-06-27T16:48:48.444Z,101607.63
2019-06-27T16:51:12.937Z,101613.84
2019-06-27T16:53:37.408Z,101611.36
2019-06-27T16:56:01.909Z,101609.08
2019-06-27T16:58:26.378Z,101617.63
2019-06-27T17:00:51.005Z,101618.42
2019-06-27T17:03:15.613Z,101615.55
2019-06-27T17:05:40.090Z,101624.23
2019-06-27T17:08:04.699Z,101622.31
2019-06-27T17:10:29.286Z,101623.34
2019-06-27T17:12:53.806Z,101624.16
2019-06-27T17:15:18.636Z,101628.52
2019-06-27T17:17:43.181Z,101626.84
2019-06-27T17:20:10.476Z,101631.91
2019-06-27T17:22:35.018Z,101627.64
2019-06-27T17:24:59.503Z,101633.61
2019-06-27T17:27:24.185Z,101642.88
2019-06-27T17:29:48.687Z,101629.79
2019-06-27T17:32:13.230Z,101636.20
2019-06-27T17:34:37.782Z,101635.22
2019-06-27T17:37:02.412Z,101635.94
2019-06-27T17:39:26.879Z,101642.41
2019-06-27T17:41:51.378Z,101638.55
2019-06-27T17:44:15.834Z,101644.79
2019-06-27T17:46:40.377Z,101645.30
2019-06-27T17:49:06.338Z,101646.12
2019-06-27T17:51:30.831Z,101652.34
2019-06-27T17:53:55.298Z,101660.78
2019-06-27T17:56:19.788Z,101659.27
2019-06-27T17:58:44.305Z,101670.60
2019-06-27T18:01:08.799Z,101672.94
2019-06-27T18:03:33.280Z,101661.71
2019-06-27T18:05:57.773Z,101663.67
2019-06-27T18:08:22.238Z,101663.74
2019-06-27T18:10:46.817Z,101659.58
2019-06-27T18:13:11.284Z,101666.19
2019-06-27T18:15:36.325Z,101652.94
2019-06-27T18:18:00.903Z,101662.88
2019-06-27T18:20:25.441Z,101657.35
2019-06-27T18:22:49.930Z,101663.31
2019-06-27T18:25:14.540Z,101658.52
2019-06-27T18:27:39.096Z,101668.68
2019-06-27T18:30:04.591Z,101661.50
2019-06-27T18:32:29.088Z,101670.41
2019-06-27T18:34:53.623Z,101669.52
2019-06-27T18:37:29.178Z,101668.63
2019-06-27T18:39:44.345Z,101667.42
2019-06-27T18:42:08.836Z,101670.91
2019-06-27T18:44:33.298Z,101662.23
2019-06-27T18:46:57.784Z,101664.86
2019-06-27T18:49:22.273Z,101669.62
2019-06-27T18:51:46.833Z,101660.88
2019-06-27T18:54:11.379Z,101677.66
2019-06-27T18:56:36.133Z,101680.17
2019-06-27T18:59:00.632Z,101672.02
2019-06-27T19:01:25.102Z,101675.14
2019-06-27T19:03:49.594Z,101677.02
2019-06-27T19:06:14.080Z,101672.70
2019-06-27T19:08:38.627Z,101667.02
2019-06-27T19:11:03.112Z,101676.95
2019-06-27T19:13:27.749Z,101677.34
2019-06-27T19:15:52.271Z,101669.62
2019-06-27T19:18:34.752Z,101675.91
2019-06-27T19:21:00.887Z,101676.08
2019-06-27T19:23:36.065Z,101675.13
2019-06-27T19:26:01.098Z,101671.69
2019-06-27T19:28:25.692Z,101670.59
2019-06-27T19:30:50.141Z,101683.58
2019-06-27T19:33:14.711Z,101680.77
2019-06-27T19:35:39.169Z,101685.33
2019-06-27T19:38:03.803Z,101690.97
2019-06-27T19:40:28.520Z,101687.95
2019-06-27T19:42:53.227Z,101686.73
2019-06-27T19:45:17.996Z,101689.18
2019-06-27T19:47:42.486Z,101687.33
2019-06-27T19:50:07.584Z,101688.92
2019-06-27T19:52:32.891Z,101688.42
2019-06-27T19:54:57.408Z,101682.17
2019-06-27T19:57:21.941Z,101690.33
2019-06-27T19:59:46.421Z,101688.12
2019-06-27T20:02:11.065Z,101681.52
2019-06-27T20:04:35.730Z,101688.63
2019-06-27T20:07:00.200Z,101681.41
2019-06-27T20:09:24.691Z,101679.70
2019-06-27T20:11:49.215Z,101681.99
2019-06-27T20:14:13.705Z,101675.44
2019-06-27T20:16:38.259Z,101682.66
2019-06-27T20:19:05.852Z,101689.45
2019-06-27T20:21:28.991Z,101681.95
2019-06-27T20:23:53.481Z,101690.79
2019-06-27T20:26:17.966Z,101689.83
2019-06-27T20:28:42.453Z,101688.28
2019-06-27T20:31:06.929Z,101688.29
2019-06-27T20:33:31.416Z,101684.34
2019-06-27T20:35:55.953Z,101691.95
2019-06-27T20:38:33.920Z,101690.48
2019-06-27T20:40:46.663Z,101684.55
2019-06-27T20:43:11.205Z,101690.14
2019-06-27T20:45:35.767Z,101686.47
2019-06-27T20:48:00.250Z,101692.03
2019-06-27T20:50:24.864Z,101702.72
2019-06-27T20:52:49.472Z,101699.88
2019-06-27T20:55:14.039Z,101703.26
2019-06-27T20:57:38.516Z,101706.38
2019-06-27T21:00:03.086Z,101703.97
2019-06-27T21:02:27.630Z,101705.52
2019-06-27T21:04:52.119Z,101705.38
2019-06-27T21:07:16.574Z,101702.39
2019-06-27T21:09:41.346Z,101704.22
2019-06-27T21:12:05.888Z,101697.35
2019-06-27T21:14:30.429Z,101697.05
2019-06-27T21:16:54.891Z,101702.70
2019-06-27T21:19:30.370Z,101703.33
2019-06-27T21:22:16.515Z,101705.41
2019-06-27T21:24:57.290Z,101700.20
2019-06-27T21:27:21.801Z,101703.61
2019-06-27T21:29:46.294Z,101699.48
2019-06-27T21:32:10.854Z,101706.80
2019-06-27T21:34:35.345Z,101705.90
2019-06-27T21:36:59.813Z,101702.34
2019-06-27T21:39:24.273Z,101703.70
2019-06-27T21:41:48.854Z,101709.81
2019-06-27T21:44:13.389Z,101704.48
2019-06-27T21:46:38.036Z,101704.42
2019-06-27T21:49:02.537Z,101701.36
2019-06-27T21:51:27.163Z,101703.88
2019-06-27T21:53:51.734Z,101699.21
2019-06-27T21:56:16.284Z,101703.52
2019-06-27T21:58:40.750Z,101699.69
2019-06-27T22:01:05.364Z,101693.76
2019-06-27T22:03:29.916Z,101694.20
2019-06-27T22:05:54.548Z,101701.09
2019-06-27T22:08:19.095Z,101697.66
2019-06-27T22:10:43.659Z,101705.18
2019-06-27T22:13:08.261Z,101702.67
2019-06-27T22:15:33.978Z,101712.80
2019-06-27T22:17:58.525Z,101716.90
2019-06-27T22:20:23.159Z,101714.02
2019-06-27T22:22:47.727Z,101706.43
2019-06-27T22:25:12.927Z,101703.38
2019-06-27T22:27:37.504Z,101705.84
2019-06-27T22:30:02.104Z,101705.34
2019-06-27T22:32:26.666Z,101700.63
2019-06-27T22:34:51.152Z,101696.03
2019-06-27T22:37:17.316Z,101698.27
2019-06-27T22:39:59.860Z,101705.00
2019-06-27T22:42:42.315Z,101711.59
2019-06-27T22:45:25.190Z,101697.81
2019-06-27T22:48:07.413Z,101698.91
2019-06-27T22:50:42.497Z,101696.26
2019-06-27T22:53:08.710Z,101692.66
2019-06-27T22:55:33.483Z,101694.50
2019-06-27T22:57:58.040Z,101697.63
2019-06-27T23:00:22.629Z,101698.03
2019-06-27T23:02:47.179Z,101692.28
2019-06-27T23:05:11.699Z,101689.16
2019-06-27T23:07:36.191Z,101685.88
2019-06-27T23:10:00.668Z,101689.60
2019-06-27T23:12:25.159Z,101694.34
2019-06-27T23:14:49.607Z,101683.38
2019-06-27T23:17:14.085Z,101679.33
2019-06-27T23:19:38.564Z,101670.88
2019-06-27T23:22:03.069Z,101670.59
2019-06-27T23:24:27.525Z,101676.12
2019-06-27T23:26:52.024Z,101668.66
2019-06-27T23:29:16.502Z,101667.52
2019-06-27T23:31:40.967Z,101667.31
2019-06-27T23:34:05.512Z,101670.38
2019-06-27T23:36:29.984Z,101671.06
2019-06-27T23:38:54.478Z,101672.23
2019-06-27T23:41:18.942Z,101666.56
2019-06-27T23:43:43.496Z,101675.67
2019-06-27T23:46:09.710Z,101671.41
2019-06-27T23:48:34.191Z,101675.97
2019-06-27T23:50:58.729Z,101674.39
2019-06-27T23:53:23.205Z,101671.58
2019-06-27T23:55:47.663Z,101673.97
2019-06-27T23:58:12.146Z,101676.22
